Elorz, Spain
Current Conditions -  °F | °C
As of 12:30 PM on Sunday 21 Dec 2014 (Local Time) from LEPP Reporting Station
Few Clouds Few Clouds  
Wind Chill: 50°   Ceiling: Unl
Heat Index: 50°   Visibility: 6mi
Dew Point: 39°   Wind: 12mph
Humidity: 66%   Direction: 350°N
Pressure: 30.53"   Gusts: NA
Location:  42.73°N, 1.56°W
Report Text: LEPP 211130Z 35010KT 320V020 9999 FEW040 10/04 Q1034
Loading
Personal Weather Stations






























Interactive Weather Map New forecast layout! Learn more

10-Day Weather Forecast

Advertisements
Track Severe Weather on mobile